UAL729 MMVR-KIAH
Flight info
| Callsign | UAL729 |
|---|---|
| Flight time | 1h 42m |
| Altitude | 34000 |
| Route | DURIB UT61 AVALI UT48 MAM DCT CRP HTOWN3 |
| Aircraft | B738/M-SDE2E3FGHIRWXY/LB1 |
Departure
| Time | 2026-04-14 20:35 |
|---|---|
| Airport | General Heriberto Jara International Airport (MMVR) |
Arrival
| Time | 2026-04-14 22:17 |
|---|---|
| Airport | George Bush Intercontinental Airport (KIAH) |
| Time | Latitude | Longitude | Altitude | Speed | Heading |
|---|---|---|---|---|---|
| 2026-04-14 19:59 | 19.14217 | -96.18440 | 76 ft | 0 kts | 101° |
| 2026-04-14 20:23 | 19.14217 | -96.18442 | 76 ft | 2 kts | 101° |
| 2026-04-14 20:23 | 19.14221 | -96.18468 | 76 ft | 4 kts | 96° |
| 2026-04-14 20:24 | 19.14223 | -96.18496 | 74 ft | 4 kts | 84° |
| 2026-04-14 20:24 | 19.14216 | -96.18522 | 70 ft | 4 kts | 45° |
| 2026-04-14 20:24 | 19.14206 | -96.18529 | 67 ft | 1 kts | 12° |
| 2026-04-14 20:28 | 19.14208 | -96.18529 | 67 ft | 1 kts | 6° |
| 2026-04-14 20:28 | 19.14210 | -96.18541 | 75 ft | 6 kts | 265° |
| 2026-04-14 20:29 | 19.14184 | -96.18647 | 71 ft | 24 kts | 229° |
| 2026-04-14 20:29 | 19.14069 | -96.18752 | 78 ft | 1 kts | 222° |
| 2026-04-14 20:31 | 19.14064 | -96.18757 | 78 ft | 3 kts | 220° |
| 2026-04-14 20:31 | 19.14060 | -96.18760 | 78 ft | 0 kts | 221° |
| 2026-04-14 20:31 | 19.14057 | -96.18762 | 78 ft | 2 kts | 221° |
| 2026-04-14 20:31 | 19.14016 | -96.18800 | 74 ft | 15 kts | 220° |
| 2026-04-14 20:32 | 19.13905 | -96.18875 | 80 ft | 21 kts | 198° |
| 2026-04-14 20:32 | 19.13760 | -96.18908 | 85 ft | 21 kts | 191° |
| 2026-04-14 20:32 | 19.13616 | -96.18938 | 85 ft | 21 kts | 191° |
| 2026-04-14 20:32 | 19.13475 | -96.18969 | 87 ft | 21 kts | 191° |
| 2026-04-14 20:33 | 19.13334 | -96.18996 | 89 ft | 20 kts | 192° |
| 2026-04-14 20:33 | 19.13197 | -96.19026 | 89 ft | 20 kts | 191° |
| 2026-04-14 20:33 | 19.13059 | -96.19054 | 91 ft | 21 kts | 191° |
| 2026-04-14 20:34 | 19.12860 | -96.19092 | 93 ft | 9 kts | 332° |
| 2026-04-14 20:34 | 19.12929 | -96.19081 | 93 ft | 11 kts | 11° |
| 2026-04-14 20:34 | 19.13005 | -96.19065 | 90 ft | 3 kts | 12° |
| 2026-04-14 20:34 | 19.13101 | -96.19045 | 92 ft | 40 kts | 11° |
| 2026-04-14 20:35 | 19.13583 | -96.18943 | 87 ft | 96 kts | 11° |
| 2026-04-14 20:35 | 19.14491 | -96.18755 | 69 ft | 168 kts | 11° |
| 2026-04-14 20:35 | 19.15809 | -96.18468 | 361 ft | 208 kts | 13° |
| 2026-04-14 20:35 | 19.17306 | -96.18152 | 765 ft | 235 kts | 12° |
| 2026-04-14 20:36 | 19.18983 | -96.17801 | 1370 ft | 251 kts | 13° |
| 2026-04-14 20:36 | 19.20684 | -96.17480 | 2458 ft | 245 kts | 7° |
| 2026-04-14 20:36 | 19.22366 | -96.17315 | 3426 ft | 245 kts | 8° |
| 2026-04-14 20:36 | 19.24021 | -96.17017 | 4422 ft | 239 kts | 11° |
| 2026-04-14 20:37 | 19.25638 | -96.16701 | 5390 ft | 233 kts | 11° |
| 2026-04-14 20:37 | 19.27225 | -96.16604 | 6346 ft | 226 kts | 351° |
| 2026-04-14 20:37 | 19.28644 | -96.17134 | 7275 ft | 215 kts | 329° |
| 2026-04-14 20:37 | 19.29739 | -96.18138 | 8197 ft | 203 kts | 309° |
| 2026-04-14 20:38 | 19.30532 | -96.19326 | 9076 ft | 197 kts | 317° |
| 2026-04-14 20:38 | 19.31677 | -96.20248 | 9360 ft | 219 kts | 327° |
| 2026-04-14 20:38 | 19.33000 | -96.21207 | 9569 ft | 243 kts | 327° |
| 2026-04-14 20:38 | 19.34447 | -96.22252 | 9950 ft | 259 kts | 327° |
| 2026-04-14 20:39 | 19.35974 | -96.23357 | 10353 ft | 273 kts | 327° |
| 2026-04-14 20:39 | 19.37582 | -96.24519 | 10786 ft | 286 kts | 327° |
| 2026-04-14 20:39 | 19.39251 | -96.25726 | 11259 ft | 295 kts | 327° |
| 2026-04-14 20:39 | 19.40945 | -96.26952 | 11747 ft | 303 kts | 327° |
| 2026-04-14 20:40 | 19.42701 | -96.28222 | 12317 ft | 309 kts | 327° |
| 2026-04-14 20:40 | 19.44487 | -96.29516 | 12887 ft | 314 kts | 327° |
| 2026-04-14 20:40 | 19.46311 | -96.30822 | 13464 ft | 319 kts | 328° |
| 2026-04-14 20:40 | 19.47969 | -96.32407 | 14004 ft | 329 kts | 304° |
| 2026-04-14 20:41 | 19.48895 | -96.34638 | 14552 ft | 334 kts | 289° |
| 2026-04-14 20:41 | 19.49767 | -96.36930 | 15083 ft | 338 kts | 301° |
| 2026-04-14 20:41 | 19.51330 | -96.38759 | 15574 ft | 338 kts | 330° |
| 2026-04-14 20:41 | 19.53499 | -96.39646 | 16182 ft | 335 kts | 346° |
| 2026-04-14 20:42 | 19.55657 | -96.40521 | 16732 ft | 339 kts | 334° |
| 2026-04-14 20:42 | 19.57749 | -96.41681 | 17309 ft | 340 kts | 332° |
| 2026-04-14 20:42 | 19.61949 | -96.44020 | 18441 ft | 341 kts | 332° |
| 2026-04-14 20:43 | 19.64062 | -96.45171 | 18945 ft | 341 kts | 332° |
| 2026-04-14 20:43 | 19.66174 | -96.46307 | 19457 ft | 341 kts | 332° |
| 2026-04-14 20:43 | 19.68291 | -96.47438 | 19967 ft | 340 kts | 333° |
| 2026-04-14 20:43 | 19.70405 | -96.48564 | 20507 ft | 340 kts | 333° |
| 2026-04-14 20:44 | 19.72515 | -96.49685 | 21046 ft | 339 kts | 332° |
| 2026-04-14 20:44 | 19.74592 | -96.50788 | 21584 ft | 337 kts | 332° |
| 2026-04-14 20:44 | 19.76683 | -96.51899 | 22150 ft | 335 kts | 332° |
| 2026-04-14 20:44 | 19.78761 | -96.53003 | 22703 ft | 333 kts | 332° |
| 2026-04-14 20:45 | 19.80847 | -96.54112 | 23091 ft | 337 kts | 331° |
| 2026-04-14 20:45 | 19.82956 | -96.55232 | 23495 ft | 341 kts | 331° |
| 2026-04-14 20:45 | 19.85084 | -96.56363 | 23850 ft | 343 kts | 332° |
| 2026-04-14 20:45 | 19.87229 | -96.57504 | 24182 ft | 346 kts | 331° |
| 2026-04-14 20:46 | 19.89392 | -96.58655 | 24515 ft | 349 kts | 332° |
| 2026-04-14 20:46 | 19.91568 | -96.59814 | 24850 ft | 351 kts | 331° |
| 2026-04-14 20:46 | 19.93728 | -96.60968 | 25189 ft | 353 kts | 331° |
| 2026-04-14 20:46 | 19.95930 | -96.62144 | 25525 ft | 355 kts | 331° |
| 2026-04-14 20:47 | 19.98142 | -96.63327 | 25872 ft | 357 kts | 331° |
| 2026-04-14 20:47 | 20.00365 | -96.64515 | 26229 ft | 358 kts | 330° |
| 2026-04-14 20:47 | 20.02597 | -96.65709 | 26581 ft | 360 kts | 330° |
| 2026-04-14 20:47 | 20.04837 | -96.66908 | 26940 ft | 361 kts | 330° |
| 2026-04-14 20:48 | 20.07082 | -96.68108 | 27301 ft | 361 kts | 330° |
| 2026-04-14 20:48 | 20.09329 | -96.69311 | 27662 ft | 362 kts | 330° |
| 2026-04-14 20:48 | 20.11578 | -96.70515 | 28031 ft | 362 kts | 330° |
| 2026-04-14 20:48 | 20.13800 | -96.71704 | 28400 ft | 362 kts | 330° |
| 2026-04-14 20:49 | 20.16052 | -96.72911 | 28741 ft | 363 kts | 330° |
| 2026-04-14 20:49 | 20.18338 | -96.74085 | 29012 ft | 368 kts | 335° |
| 2026-04-14 20:49 | 20.20806 | -96.74876 | 29298 ft | 374 kts | 347° |
| 2026-04-14 20:49 | 20.23390 | -96.75274 | 29602 ft | 377 kts | 349° |
| 2026-04-14 20:50 | 20.26000 | -96.75601 | 29894 ft | 379 kts | 350° |
| 2026-04-14 20:50 | 20.28624 | -96.75916 | 30161 ft | 380 kts | 350° |
| 2026-04-14 20:50 | 20.31263 | -96.76239 | 30382 ft | 383 kts | 349° |
| 2026-04-14 20:50 | 20.33880 | -96.76570 | 30588 ft | 385 kts | 349° |
| 2026-04-14 20:51 | 20.36550 | -96.76915 | 30811 ft | 388 kts | 349° |
| 2026-04-14 20:51 | 20.39235 | -96.77269 | 31035 ft | 390 kts | 349° |
| 2026-04-14 20:51 | 20.41935 | -96.77627 | 31246 ft | 392 kts | 349° |
| 2026-04-14 20:51 | 20.44646 | -96.77988 | 31462 ft | 394 kts | 349° |
| 2026-04-14 20:52 | 20.47369 | -96.78352 | 31692 ft | 395 kts | 349° |
| 2026-04-14 20:52 | 20.50109 | -96.78718 | 31906 ft | 397 kts | 348° |
| 2026-04-14 20:52 | 20.51922 | -96.78960 | 32055 ft | 398 kts | 348° |
| 2026-04-14 20:52 | 20.55575 | -96.79448 | 32347 ft | 400 kts | 348° |
| 2026-04-14 20:53 | 20.58336 | -96.79816 | 32567 ft | 401 kts | 348° |
| 2026-04-14 20:53 | 20.61110 | -96.80187 | 32786 ft | 402 kts | 348° |
| 2026-04-14 20:53 | 20.63890 | -96.80559 | 33020 ft | 403 kts | 348° |
| 2026-04-14 20:53 | 20.65734 | -96.80811 | 33171 ft | 404 kts | 348° |
| 2026-04-14 20:54 | 20.68519 | -96.81209 | 33403 ft | 404 kts | 347° |
| 2026-04-14 20:54 | 20.71309 | -96.81612 | 33630 ft | 405 kts | 347° |
| 2026-04-14 20:54 | 20.74101 | -96.82010 | 33863 ft | 405 kts | 347° |
| 2026-04-14 20:54 | 20.76903 | -96.82392 | 34054 ft | 407 kts | 348° |
| 2026-04-14 20:55 | 20.79737 | -96.82773 | 34041 ft | 414 kts | 348° |
| 2026-04-14 20:55 | 20.85539 | -96.83547 | 34066 ft | 426 kts | 348° |
| 2026-04-14 20:56 | 20.91508 | -96.84346 | 34075 ft | 438 kts | 348° |
| 2026-04-14 20:56 | 20.97602 | -96.85164 | 34068 ft | 450 kts | 348° |
| 2026-04-14 20:57 | 21.03887 | -96.86010 | 34069 ft | 461 kts | 348° |
| 2026-04-14 20:57 | 21.10316 | -96.86875 | 34067 ft | 470 kts | 348° |
| 2026-04-14 20:58 | 21.16873 | -96.87758 | 34063 ft | 479 kts | 348° |
| 2026-04-14 20:58 | 21.23491 | -96.88650 | 34063 ft | 485 kts | 348° |
| 2026-04-14 20:59 | 21.30202 | -96.89554 | 34058 ft | 487 kts | 348° |
| 2026-04-14 20:59 | 21.36926 | -96.90462 | 34060 ft | 487 kts | 348° |
| 2026-04-14 21:00 | 21.43644 | -96.91371 | 34059 ft | 487 kts | 348° |
| 2026-04-14 21:00 | 21.50316 | -96.92274 | 34059 ft | 486 kts | 348° |
| 2026-04-14 21:01 | 21.57011 | -96.93193 | 34062 ft | 485 kts | 348° |
| 2026-04-14 21:01 | 21.63700 | -96.94119 | 34059 ft | 484 kts | 348° |
| 2026-04-14 21:02 | 21.70384 | -96.95043 | 34066 ft | 484 kts | 348° |
| 2026-04-14 21:02 | 21.77027 | -96.95962 | 34067 ft | 484 kts | 348° |
| 2026-04-14 21:03 | 21.83713 | -96.96880 | 34063 ft | 484 kts | 348° |
| 2026-04-14 21:03 | 21.90399 | -96.97795 | 34064 ft | 484 kts | 348° |
| 2026-04-14 21:04 | 21.97087 | -96.98711 | 34064 ft | 484 kts | 348° |
| 2026-04-14 21:04 | 22.03773 | -96.99629 | 34065 ft | 485 kts | 348° |
| 2026-04-14 21:05 | 22.10428 | -97.00545 | 34064 ft | 486 kts | 348° |
| 2026-04-14 21:05 | 22.17134 | -97.01467 | 34064 ft | 486 kts | 348° |
| 2026-04-14 21:06 | 22.23842 | -97.02391 | 34066 ft | 486 kts | 348° |
| 2026-04-14 21:06 | 22.30552 | -97.03316 | 34069 ft | 486 kts | 348° |
| 2026-04-14 21:07 | 22.37224 | -97.04237 | 34069 ft | 487 kts | 348° |
| 2026-04-14 21:07 | 22.43953 | -97.05167 | 34063 ft | 487 kts | 348° |
| 2026-04-14 21:08 | 22.50682 | -97.06097 | 34065 ft | 488 kts | 348° |
| 2026-04-14 21:08 | 22.57412 | -97.07028 | 34064 ft | 488 kts | 348° |
| 2026-04-14 21:09 | 22.64144 | -97.07961 | 34074 ft | 488 kts | 348° |
| 2026-04-14 21:09 | 22.70838 | -97.08889 | 34065 ft | 488 kts | 348° |
| 2026-04-14 21:10 | 22.77577 | -97.09825 | 34063 ft | 488 kts | 348° |
| 2026-04-14 21:10 | 22.84312 | -97.10760 | 34064 ft | 488 kts | 348° |
| 2026-04-14 21:11 | 22.91053 | -97.11698 | 34061 ft | 488 kts | 348° |
| 2026-04-14 21:11 | 22.97784 | -97.12636 | 34067 ft | 488 kts | 348° |
| 2026-04-14 21:12 | 23.04529 | -97.13576 | 34065 ft | 488 kts | 348° |
| 2026-04-14 21:12 | 23.11223 | -97.14510 | 34058 ft | 488 kts | 348° |
| 2026-04-14 21:13 | 23.17959 | -97.15449 | 34060 ft | 488 kts | 348° |
| 2026-04-14 21:13 | 23.24694 | -97.16387 | 34056 ft | 488 kts | 348° |
| 2026-04-14 21:14 | 23.34751 | -97.17791 | 34058 ft | 488 kts | 349° |
| 2026-04-14 21:14 | 23.41480 | -97.18730 | 34058 ft | 488 kts | 349° |
| 2026-04-14 21:15 | 23.48211 | -97.19672 | 34056 ft | 488 kts | 349° |
| 2026-04-14 21:15 | 23.54947 | -97.20615 | 34055 ft | 488 kts | 349° |
| 2026-04-14 21:16 | 23.61672 | -97.21557 | 34060 ft | 487 kts | 349° |
| 2026-04-14 21:16 | 23.68348 | -97.22494 | 34052 ft | 486 kts | 349° |
| 2026-04-14 21:17 | 23.75040 | -97.23433 | 34052 ft | 484 kts | 349° |
| 2026-04-14 21:17 | 23.81713 | -97.24371 | 34053 ft | 482 kts | 349° |
| 2026-04-14 21:18 | 23.88352 | -97.25305 | 34051 ft | 481 kts | 349° |
| 2026-04-14 21:18 | 23.94930 | -97.26232 | 34047 ft | 479 kts | 349° |
| 2026-04-14 21:19 | 24.01534 | -97.27164 | 34049 ft | 478 kts | 349° |
| 2026-04-14 21:19 | 24.08124 | -97.28094 | 34051 ft | 477 kts | 349° |
| 2026-04-14 21:20 | 24.14705 | -97.29025 | 34050 ft | 477 kts | 349° |
| 2026-04-14 21:20 | 24.21240 | -97.29949 | 34059 ft | 477 kts | 349° |
| 2026-04-14 21:21 | 24.27815 | -97.30881 | 34046 ft | 478 kts | 349° |
| 2026-04-14 21:21 | 24.34404 | -97.31815 | 34047 ft | 479 kts | 349° |
| 2026-04-14 21:22 | 24.41053 | -97.32759 | 34047 ft | 480 kts | 349° |
| 2026-04-14 21:22 | 24.47639 | -97.33694 | 34043 ft | 482 kts | 349° |
| 2026-04-14 21:23 | 24.54278 | -97.34639 | 34045 ft | 482 kts | 349° |
| 2026-04-14 21:23 | 24.60937 | -97.35600 | 34043 ft | 483 kts | 349° |
| 2026-04-14 21:24 | 24.67606 | -97.36567 | 34044 ft | 483 kts | 349° |
| 2026-04-14 21:24 | 24.74246 | -97.37529 | 34041 ft | 483 kts | 349° |
| 2026-04-14 21:25 | 24.80903 | -97.38493 | 34043 ft | 483 kts | 349° |
| 2026-04-14 21:25 | 24.87551 | -97.39458 | 34049 ft | 483 kts | 349° |
| 2026-04-14 21:26 | 24.94208 | -97.40425 | 34047 ft | 482 kts | 349° |
| 2026-04-14 21:26 | 25.00864 | -97.41392 | 34048 ft | 482 kts | 349° |
| 2026-04-14 21:27 | 25.07479 | -97.42344 | 34048 ft | 482 kts | 349° |
| 2026-04-14 21:27 | 25.14127 | -97.43292 | 34050 ft | 482 kts | 349° |
| 2026-04-14 21:28 | 25.20783 | -97.44244 | 34057 ft | 482 kts | 349° |
| 2026-04-14 21:28 | 25.27411 | -97.45195 | 34059 ft | 482 kts | 349° |
| 2026-04-14 21:29 | 25.34072 | -97.46151 | 34059 ft | 482 kts | 349° |
| 2026-04-14 21:29 | 25.40725 | -97.47111 | 34058 ft | 483 kts | 349° |
| 2026-04-14 21:30 | 25.47342 | -97.48071 | 34066 ft | 483 kts | 349° |
| 2026-04-14 21:30 | 25.53997 | -97.49038 | 34065 ft | 483 kts | 349° |
| 2026-04-14 21:31 | 25.60677 | -97.50009 | 34074 ft | 484 kts | 349° |
| 2026-04-14 21:31 | 25.67363 | -97.50981 | 34070 ft | 485 kts | 349° |
| 2026-04-14 21:32 | 25.74018 | -97.51950 | 34068 ft | 485 kts | 349° |
| 2026-04-14 21:32 | 25.80757 | -97.52460 | 34081 ft | 489 kts | 358° |
| 2026-04-14 21:33 | 25.87580 | -97.52162 | 34076 ft | 491 kts | 359° |
| 2026-04-14 21:33 | 25.94388 | -97.51811 | 34061 ft | 491 kts | 359° |
| 2026-04-14 21:34 | 26.01205 | -97.51519 | 34068 ft | 491 kts | 359° |
| 2026-04-14 21:34 | 26.08017 | -97.51265 | 34059 ft | 491 kts | 358° |
| 2026-04-14 21:35 | 26.14857 | -97.51021 | 34061 ft | 492 kts | 358° |
| 2026-04-14 21:35 | 26.21698 | -97.50773 | 34052 ft | 492 kts | 358° |
| 2026-04-14 21:36 | 26.28513 | -97.50524 | 34053 ft | 492 kts | 358° |
| 2026-04-14 21:36 | 26.35350 | -97.50273 | 34050 ft | 492 kts | 358° |
| 2026-04-14 21:37 | 26.42180 | -97.50022 | 34058 ft | 492 kts | 358° |
| 2026-04-14 21:37 | 26.48986 | -97.49772 | 34045 ft | 492 kts | 358° |
| 2026-04-14 21:38 | 26.55849 | -97.49519 | 34055 ft | 492 kts | 358° |
| 2026-04-14 21:38 | 26.62649 | -97.49268 | 34051 ft | 492 kts | 358° |
| 2026-04-14 21:39 | 26.69546 | -97.49015 | 34076 ft | 500 kts | 358° |
| 2026-04-14 21:39 | 26.76535 | -97.48758 | 34064 ft | 504 kts | 358° |
| 2026-04-14 21:40 | 26.83502 | -97.48499 | 34053 ft | 505 kts | 358° |
| 2026-04-14 21:40 | 26.90520 | -97.48238 | 34055 ft | 505 kts | 358° |
| 2026-04-14 21:41 | 26.97531 | -97.47977 | 34067 ft | 504 kts | 358° |
| 2026-04-14 21:41 | 27.04537 | -97.47716 | 34057 ft | 504 kts | 358° |
| 2026-04-14 21:42 | 27.11490 | -97.47458 | 34059 ft | 503 kts | 358° |
| 2026-04-14 21:42 | 27.18484 | -97.47197 | 34059 ft | 503 kts | 358° |
| 2026-04-14 21:43 | 27.25472 | -97.46937 | 34061 ft | 502 kts | 358° |
| 2026-04-14 21:43 | 27.32452 | -97.46676 | 34067 ft | 502 kts | 358° |
| 2026-04-14 21:44 | 27.39431 | -97.46416 | 34059 ft | 502 kts | 358° |
| 2026-04-14 21:44 | 27.46363 | -97.46156 | 34082 ft | 501 kts | 358° |
| 2026-04-14 21:45 | 27.53334 | -97.45896 | 34112 ft | 502 kts | 358° |
| 2026-04-14 21:45 | 27.60328 | -97.45634 | 34057 ft | 503 kts | 358° |
| 2026-04-14 21:46 | 27.67318 | -97.45370 | 34063 ft | 503 kts | 358° |
| 2026-04-14 21:46 | 27.74256 | -97.45109 | 34074 ft | 502 kts | 358° |
| 2026-04-14 21:47 | 27.81232 | -97.44846 | 34067 ft | 501 kts | 358° |
| 2026-04-14 21:47 | 27.88198 | -97.44459 | 34061 ft | 505 kts | 7° |
| 2026-04-14 21:48 | 27.91564 | -97.43257 | 34095 ft | 511 kts | 24° |
| 2026-04-14 21:48 | 27.94583 | -97.41088 | 33992 ft | 519 kts | 36° |
| 2026-04-14 21:48 | 27.97385 | -97.38585 | 33689 ft | 521 kts | 38° |
| 2026-04-14 21:48 | 28.00177 | -97.35992 | 33286 ft | 516 kts | 38° |
| 2026-04-14 21:49 | 28.02927 | -97.33419 | 32898 ft | 509 kts | 38° |
| 2026-04-14 21:49 | 28.05647 | -97.30899 | 32514 ft | 502 kts | 38° |
| 2026-04-14 21:49 | 28.08343 | -97.28434 | 32143 ft | 496 kts | 37° |
| 2026-04-14 21:49 | 28.11030 | -97.26004 | 31778 ft | 493 kts | 37° |
| 2026-04-14 21:50 | 28.13708 | -97.23596 | 31420 ft | 489 kts | 37° |
| 2026-04-14 21:50 | 28.16363 | -97.21215 | 31064 ft | 486 kts | 37° |
| 2026-04-14 21:50 | 28.18971 | -97.18874 | 30728 ft | 483 kts | 37° |
| 2026-04-14 21:50 | 28.21596 | -97.16515 | 30380 ft | 481 kts | 37° |
| 2026-04-14 21:51 | 28.24211 | -97.14161 | 30016 ft | 478 kts | 37° |
| 2026-04-14 21:51 | 28.26806 | -97.11823 | 29613 ft | 476 kts | 37° |
| 2026-04-14 21:51 | 28.29391 | -97.09491 | 29217 ft | 474 kts | 37° |
| 2026-04-14 21:51 | 28.31964 | -97.07168 | 28823 ft | 472 kts | 37° |
| 2026-04-14 21:52 | 28.34526 | -97.04854 | 28437 ft | 469 kts | 37° |
| 2026-04-14 21:52 | 28.37074 | -97.02550 | 28051 ft | 467 kts | 37° |
| 2026-04-14 21:52 | 28.39576 | -97.00288 | 27680 ft | 465 kts | 37° |
| 2026-04-14 21:52 | 28.42117 | -96.97988 | 27336 ft | 473 kts | 37° |
| 2026-04-14 21:53 | 28.44732 | -96.95622 | 26980 ft | 488 kts | 37° |
| 2026-04-14 21:53 | 28.47433 | -96.93176 | 26632 ft | 504 kts | 37° |
| 2026-04-14 21:53 | 28.50182 | -96.90686 | 26275 ft | 505 kts | 37° |
| 2026-04-14 21:53 | 28.52940 | -96.88185 | 25924 ft | 512 kts | 37° |
| 2026-04-14 21:54 | 28.55742 | -96.85643 | 25578 ft | 519 kts | 37° |
| 2026-04-14 21:54 | 28.58560 | -96.83084 | 25216 ft | 515 kts | 37° |
| 2026-04-14 21:54 | 28.61334 | -96.80561 | 24864 ft | 508 kts | 37° |
| 2026-04-14 21:54 | 28.64068 | -96.78074 | 24533 ft | 511 kts | 37° |
| 2026-04-14 21:55 | 28.66849 | -96.75544 | 24198 ft | 511 kts | 37° |
| 2026-04-14 21:55 | 28.69619 | -96.73022 | 24112 ft | 509 kts | 37° |
| 2026-04-14 21:55 | 28.72383 | -96.70502 | 24091 ft | 509 kts | 37° |
| 2026-04-14 21:55 | 28.75147 | -96.67980 | 24019 ft | 510 kts | 37° |
| 2026-04-14 21:56 | 28.77914 | -96.65453 | 23722 ft | 508 kts | 37° |
| 2026-04-14 21:56 | 28.80646 | -96.62958 | 23338 ft | 499 kts | 37° |
| 2026-04-14 21:56 | 28.83516 | -96.60793 | 22868 ft | 492 kts | 22° |
| 2026-04-14 21:56 | 28.86656 | -96.59458 | 22490 ft | 486 kts | 17° |
| 2026-04-14 21:57 | 28.89850 | -96.58201 | 22054 ft | 485 kts | 17° |
| 2026-04-14 21:57 | 28.93024 | -96.56925 | 21632 ft | 483 kts | 18° |
| 2026-04-14 21:57 | 28.96177 | -96.55626 | 21218 ft | 481 kts | 18° |
| 2026-04-14 21:57 | 28.99310 | -96.54311 | 20799 ft | 479 kts | 19° |
| 2026-04-14 21:58 | 29.02424 | -96.52990 | 20401 ft | 476 kts | 19° |
| 2026-04-14 21:58 | 29.05520 | -96.51670 | 20001 ft | 474 kts | 19° |
| 2026-04-14 21:58 | 29.08601 | -96.50354 | 19612 ft | 471 kts | 19° |
| 2026-04-14 21:58 | 29.11628 | -96.49063 | 19229 ft | 469 kts | 19° |
| 2026-04-14 21:59 | 29.14679 | -96.47762 | 18846 ft | 467 kts | 19° |
| 2026-04-14 21:59 | 29.17709 | -96.46469 | 18461 ft | 464 kts | 19° |
| 2026-04-14 21:59 | 29.20724 | -96.45184 | 18037 ft | 460 kts | 19° |
| 2026-04-14 21:59 | 29.23698 | -96.43913 | 17582 ft | 454 kts | 19° |
| 2026-04-14 22:00 | 29.26634 | -96.42660 | 17157 ft | 447 kts | 19° |
| 2026-04-14 22:00 | 29.29531 | -96.41422 | 16734 ft | 442 kts | 20° |
| 2026-04-14 22:00 | 29.32353 | -96.40065 | 16312 ft | 438 kts | 24° |
| 2026-04-14 22:00 | 29.35072 | -96.38520 | 15902 ft | 436 kts | 26° |
| 2026-04-14 22:01 | 29.37747 | -96.36933 | 15499 ft | 429 kts | 26° |
| 2026-04-14 22:01 | 29.40349 | -96.35413 | 15095 ft | 421 kts | 26° |
| 2026-04-14 22:01 | 29.42947 | -96.33931 | 14701 ft | 414 kts | 25° |
| 2026-04-14 22:01 | 29.45498 | -96.32463 | 14288 ft | 407 kts | 28° |
| 2026-04-14 22:02 | 29.47669 | -96.30460 | 14090 ft | 396 kts | 49° |
| 2026-04-14 22:02 | 29.49319 | -96.28010 | 14065 ft | 380 kts | 53° |
| 2026-04-14 22:02 | 29.50860 | -96.25618 | 14008 ft | 367 kts | 53° |
| 2026-04-14 22:02 | 29.52380 | -96.23296 | 13746 ft | 361 kts | 52° |
| 2026-04-14 22:03 | 29.53899 | -96.21010 | 13389 ft | 358 kts | 52° |
| 2026-04-14 22:03 | 29.55463 | -96.18825 | 12983 ft | 351 kts | 46° |
| 2026-04-14 22:03 | 29.57179 | -96.16911 | 12590 ft | 346 kts | 43° |
| 2026-04-14 22:03 | 29.58953 | -96.15070 | 12189 ft | 341 kts | 42° |
| 2026-04-14 22:04 | 29.60700 | -96.13265 | 11783 ft | 334 kts | 43° |
| 2026-04-14 22:04 | 29.62397 | -96.11482 | 11374 ft | 328 kts | 44° |
| 2026-04-14 22:04 | 29.64056 | -96.09716 | 11005 ft | 322 kts | 45° |
| 2026-04-14 22:04 | 29.65677 | -96.07973 | 10631 ft | 316 kts | 45° |
| 2026-04-14 22:05 | 29.67264 | -96.06261 | 10260 ft | 310 kts | 44° |
| 2026-04-14 22:05 | 29.68817 | -96.04579 | 9884 ft | 304 kts | 46° |
| 2026-04-14 22:05 | 29.70324 | -96.02942 | 9470 ft | 300 kts | 44° |
| 2026-04-14 22:05 | 29.71833 | -96.01311 | 9149 ft | 295 kts | 44° |
| 2026-04-14 22:06 | 29.73417 | -95.99875 | 9120 ft | 285 kts | 36° |
| 2026-04-14 22:06 | 29.75061 | -95.98625 | 9000 ft | 284 kts | 37° |
| 2026-04-14 22:06 | 29.76726 | -95.97382 | 8688 ft | 286 kts | 36° |
| 2026-04-14 22:06 | 29.78386 | -95.96131 | 8320 ft | 284 kts | 37° |
| 2026-04-14 22:07 | 29.80021 | -95.94880 | 7983 ft | 278 kts | 36° |
| 2026-04-14 22:07 | 29.81602 | -95.93660 | 7623 ft | 270 kts | 36° |
| 2026-04-14 22:07 | 29.83139 | -95.92468 | 7261 ft | 263 kts | 37° |
| 2026-04-14 22:07 | 29.84601 | -95.91329 | 7117 ft | 250 kts | 37° |
| 2026-04-14 22:08 | 29.86009 | -95.90231 | 7113 ft | 242 kts | 37° |
| 2026-04-14 22:08 | 29.87409 | -95.89132 | 7130 ft | 246 kts | 38° |
| 2026-04-14 22:08 | 29.88837 | -95.88010 | 7128 ft | 250 kts | 37° |
| 2026-04-14 22:08 | 29.90278 | -95.86881 | 7125 ft | 251 kts | 37° |
| 2026-04-14 22:09 | 29.91724 | -95.85747 | 7134 ft | 253 kts | 37° |
| 2026-04-14 22:09 | 29.93179 | -95.84610 | 7101 ft | 249 kts | 37° |
| 2026-04-14 22:09 | 29.94605 | -95.83496 | 7106 ft | 246 kts | 36° |
| 2026-04-14 22:09 | 29.96027 | -95.82386 | 7101 ft | 247 kts | 37° |
| 2026-04-14 22:10 | 29.97405 | -95.81248 | 7062 ft | 246 kts | 46° |
| 2026-04-14 22:10 | 29.98257 | -95.79618 | 7090 ft | 236 kts | 73° |
| 2026-04-14 22:10 | 29.98836 | -95.77805 | 6877 ft | 244 kts | 73° |
| 2026-04-14 22:10 | 29.99316 | -95.75937 | 6560 ft | 242 kts | 89° |
| 2026-04-14 22:11 | 29.99314 | -95.74029 | 6258 ft | 235 kts | 96° |
| 2026-04-14 22:11 | 29.99292 | -95.72149 | 5922 ft | 233 kts | 95° |
| 2026-04-14 22:11 | 29.99283 | -95.70295 | 5598 ft | 230 kts | 94° |
| 2026-04-14 22:11 | 29.99283 | -95.68453 | 5294 ft | 229 kts | 95° |
| 2026-04-14 22:12 | 29.99285 | -95.66615 | 5107 ft | 228 kts | 94° |
| 2026-04-14 22:12 | 29.99286 | -95.64813 | 4878 ft | 231 kts | 94° |
| 2026-04-14 22:12 | 29.99289 | -95.62937 | 4566 ft | 236 kts | 94° |
| 2026-04-14 22:12 | 29.99293 | -95.61059 | 4226 ft | 233 kts | 94° |
| 2026-04-14 22:13 | 29.99301 | -95.59242 | 4122 ft | 220 kts | 95° |
| 2026-04-14 22:13 | 29.99305 | -95.57511 | 4037 ft | 215 kts | 93° |
| 2026-04-14 22:13 | 29.99308 | -95.55772 | 3828 ft | 216 kts | 94° |
| 2026-04-14 22:13 | 29.99313 | -95.54046 | 3612 ft | 215 kts | 95° |
| 2026-04-14 22:14 | 29.99318 | -95.52347 | 3391 ft | 209 kts | 96° |
| 2026-04-14 22:14 | 29.99321 | -95.50703 | 3152 ft | 207 kts | 95° |
| 2026-04-14 22:14 | 29.99324 | -95.49060 | 2819 ft | 203 kts | 94° |
| 2026-04-14 22:14 | 29.99327 | -95.47449 | 2494 ft | 199 kts | 94° |
| 2026-04-14 22:15 | 29.99330 | -95.45868 | 2202 ft | 195 kts | 95° |
| 2026-04-14 22:15 | 29.99335 | -95.44367 | 2129 ft | 181 kts | 96° |
| 2026-04-14 22:15 | 29.99337 | -95.42928 | 1887 ft | 176 kts | 95° |
| 2026-04-14 22:15 | 29.99339 | -95.41539 | 1617 ft | 170 kts | 95° |
| 2026-04-14 22:16 | 29.99341 | -95.40202 | 1381 ft | 167 kts | 95° |
| 2026-04-14 22:16 | 29.99342 | -95.38860 | 1186 ft | 166 kts | 95° |
| 2026-04-14 22:16 | 29.99304 | -95.37548 | 864 ft | 163 kts | 96° |
| 2026-04-14 22:16 | 29.99342 | -95.36243 | 407 ft | 164 kts | 89° |
| 2026-04-14 22:17 | 29.99342 | -95.34951 | 111 ft | 152 kts | 94° |
| 2026-04-14 22:17 | 29.99336 | -95.33909 | 104 ft | 103 kts | 88° |
| 2026-04-14 22:17 | 29.99337 | -95.33307 | 107 ft | 50 kts | 89° |
| 2026-04-14 22:17 | 29.99339 | -95.33064 | 108 ft | 12 kts | 88° |
| 2026-04-14 22:18 | 29.99341 | -95.33035 | 107 ft | 6 kts | 87° |
| 2026-04-14 22:18 | 29.99343 | -95.32857 | 105 ft | 29 kts | 90° |
| 2026-04-14 22:18 | 29.99344 | -95.32630 | 105 ft | 27 kts | 89° |
| 2026-04-14 22:18 | 29.99235 | -95.32540 | 105 ft | 20 kts | 180° |
| 2026-04-14 22:19 | 29.99177 | -95.32626 | 106 ft | 16 kts | 273° |
| 2026-04-14 22:19 | 29.99178 | -95.32870 | 106 ft | 15 kts | 272° |
| 2026-04-14 22:19 | 29.99180 | -95.32993 | 106 ft | 15 kts | 259° |
| 2026-04-14 22:20 | 29.99088 | -95.33026 | 106 ft | 15 kts | 177° |
| 2026-04-14 22:20 | 29.98985 | -95.33025 | 106 ft | 15 kts | 180° |
| 2026-04-14 22:20 | 29.98886 | -95.33025 | 106 ft | 14 kts | 179° |
| 2026-04-14 22:20 | 29.98792 | -95.33024 | 106 ft | 13 kts | 179° |
| 2026-04-14 22:21 | 29.98702 | -95.33023 | 106 ft | 13 kts | 179° |
| 2026-04-14 22:21 | 29.98612 | -95.33026 | 106 ft | 14 kts | 181° |
| 2026-04-14 22:21 | 29.98505 | -95.33026 | 106 ft | 17 kts | 181° |
| 2026-04-14 22:21 | 29.98376 | -95.33026 | 106 ft | 20 kts | 182° |
| 2026-04-14 22:22 | 29.98284 | -95.33109 | 106 ft | 18 kts | 270° |
| 2026-04-14 22:22 | 29.98300 | -95.33251 | 106 ft | 19 kts | 269° |
| 2026-04-14 22:22 | 29.98354 | -95.33375 | 106 ft | 20 kts | 336° |
| 2026-04-14 22:22 | 29.98485 | -95.33381 | 106 ft | 20 kts | 25° |
| 2026-04-14 22:23 | 29.98524 | -95.33352 | 106 ft | 0 kts | 32° |